createdAt,value
2023-04-19T04:07:48.182Z,10.00
2023-04-19T04:10:16.601Z,10.00
2023-04-19T04:12:44.895Z,10.10
2023-04-19T04:17:53.304Z,9.80
2023-04-19T04:20:22.345Z,9.80
2023-04-19T04:22:52.681Z,9.80
2023-04-19T04:25:23.221Z,9.80
2023-04-19T04:27:53.111Z,9.90
2023-04-19T04:30:22.205Z,9.80
2023-04-19T04:32:51.421Z,9.70
2023-04-19T04:35:20.816Z,9.60
2023-04-19T04:37:49.323Z,9.60
2023-04-19T04:40:19.421Z,9.60
2023-04-19T04:42:48.242Z,9.60
2023-04-19T04:45:18.555Z,9.50
2023-04-19T04:47:48.381Z,9.50
2023-04-19T04:50:16.689Z,9.50
2023-04-19T04:52:45.352Z,9.50
2023-04-19T04:55:13.799Z,9.50
2023-04-19T04:57:43.604Z,9.40
2023-04-19T05:00:15.931Z,9.50
2023-04-19T05:02:44.427Z,9.40
2023-04-19T05:05:13.563Z,9.50
2023-04-19T05:07:42.040Z,9.40
2023-04-19T05:10:10.916Z,9.30
2023-04-19T05:12:39.721Z,9.30
2023-04-19T05:15:12.390Z,9.30
2023-04-19T05:17:43.076Z,9.40
2023-04-19T05:20:12.487Z,9.40
2023-04-19T05:22:42.987Z,9.30
2023-04-19T05:25:12.864Z,9.30
2023-04-19T05:27:41.794Z,9.40
2023-04-19T05:30:12.203Z,9.30
2023-04-19T05:32:40.919Z,9.30
2023-04-19T05:35:11.388Z,9.30
2023-04-19T05:37:40.014Z,9.30
2023-04-19T05:40:10.987Z,9.30
2023-04-19T05:42:40.471Z,9.30
2023-04-19T05:45:11.861Z,9.30
2023-04-19T05:47:40.658Z,9.10
2023-04-19T05:50:09.842Z,9.20
2023-04-19T05:52:38.347Z,9.20
2023-04-19T05:55:07.254Z,9.20
2023-04-19T05:57:35.850Z,9.20
2023-04-19T06:00:04.322Z,9.20
2023-04-19T06:02:34.197Z,9.30
2023-04-19T06:05:16.216Z,9.30
2023-04-19T06:07:54.580Z,9.30
2023-04-19T06:10:44.486Z,9.30
2023-04-19T06:13:19.931Z,9.20
2023-04-19T06:15:49.731Z,9.20
2023-04-19T06:18:20.376Z,9.30
2023-04-19T06:20:49.158Z,9.40
2023-04-19T06:23:18.793Z,9.30
2023-04-19T06:25:49.245Z,9.30
2023-04-19T06:28:17.807Z,9.30
2023-04-19T06:30:46.366Z,9.30
2023-04-19T06:33:15.280Z,9.20
2023-04-19T06:35:45.439Z,9.30
2023-04-19T06:38:13.995Z,9.30
2023-04-19T06:40:42.806Z,9.20
2023-04-19T06:43:11.439Z,9.20
2023-04-19T06:45:40.600Z,9.30
2023-04-19T06:48:09.204Z,9.20
2023-04-19T06:50:38.221Z,9.20
2023-04-19T06:53:08.201Z,9.20
2023-04-19T06:55:36.956Z,9.20
2023-04-19T06:58:07.972Z,9.20
2023-04-19T07:00:36.439Z,9.20
2023-04-19T07:03:05.283Z,9.10
2023-04-19T07:05:33.991Z,9.10
2023-04-19T07:08:02.687Z,9.10
2023-04-19T07:10:32.560Z,9.20
2023-04-19T07:13:01.124Z,9.20
2023-04-19T07:15:30.136Z,9.30
2023-04-19T07:17:59.034Z,9.30
2023-04-19T07:20:27.674Z,9.40
2023-04-19T07:22:56.641Z,9.30
2023-04-19T07:25:25.135Z,9.30
2023-04-19T07:27:56.268Z,9.30
2023-04-19T07:30:25.235Z,9.40
2023-04-19T07:32:53.721Z,9.40
2023-04-19T07:35:22.344Z,9.50
2023-04-19T07:37:50.744Z,9.60
2023-04-19T07:40:19.328Z,9.60
2023-04-19T07:42:47.745Z,9.60
2023-04-19T07:45:17.964Z,9.70
2023-04-19T07:47:46.636Z,9.80
2023-04-19T07:50:15.590Z,9.70
2023-04-19T07:52:44.076Z,9.80
2023-04-19T07:55:13.130Z,9.70
2023-04-19T07:57:46.385Z,9.70
2023-04-19T08:00:17.314Z,9.70
2023-04-19T08:02:47.033Z,9.80
2023-04-19T08:05:17.797Z,9.80
2023-04-19T08:07:46.931Z,9.80
2023-04-19T08:10:15.736Z,9.80
2023-04-19T08:12:53.524Z,10.00
2023-04-19T08:18:05.170Z,10.10
2023-04-19T08:20:37.035Z,10.40
2023-04-19T08:23:18.033Z,10.30
2023-04-19T08:25:51.230Z,10.40
2023-04-19T08:28:20.372Z,10.40
2023-04-19T08:30:50.612Z,10.40
2023-04-19T08:33:19.414Z,10.50
2023-04-19T08:35:47.932Z,10.70
2023-04-19T08:38:16.870Z,10.60
2023-04-19T08:40:49.144Z,10.40
2023-04-19T08:43:19.175Z,10.50
2023-04-19T08:45:50.285Z,10.60
2023-04-19T08:48:19.804Z,10.80
2023-04-19T08:51:00.726Z,10.80
2023-04-19T08:53:33.040Z,10.70
2023-04-19T08:58:51.945Z,10.60
2023-04-19T09:01:33.807Z,10.70
2023-04-19T09:04:26.551Z,10.60
2023-04-19T09:06:57.992Z,10.50
2023-04-19T09:11:59.494Z,10.70
2023-04-19T09:14:29.152Z,10.70
2023-04-19T09:17:17.889Z,10.80
2023-04-19T09:19:50.331Z,11.10
2023-04-19T09:22:19.413Z,11.50
2023-04-19T09:27:29.532Z,11.10
2023-04-19T09:30:02.178Z,11.30
2023-04-19T09:32:47.185Z,11.50
2023-04-19T09:35:16.912Z,11.80
2023-04-19T09:38:05.541Z,11.50
2023-04-19T09:40:35.002Z,11.50
2023-04-19T09:43:25.771Z,11.60
2023-04-19T09:45:52.760Z,11.60
2023-04-19T09:48:25.762Z,11.60
2023-04-19T09:51:00.748Z,12.10
2023-04-19T09:53:34.795Z,12.10
2023-04-19T09:56:05.647Z,11.80
2023-04-19T09:58:49.026Z,11.70
2023-04-19T10:01:22.632Z,11.50
2023-04-19T10:03:53.739Z,11.60
2023-04-19T10:08:54.900Z,11.90
2023-04-19T10:11:25.365Z,12.00
2023-04-19T10:13:59.172Z,11.70
2023-04-19T10:16:28.454Z,12.00
2023-04-19T10:18:59.030Z,12.20
2023-04-19T10:21:28.925Z,12.30
2023-04-19T10:23:57.805Z,12.30
2023-04-19T10:26:27.832Z,12.30
2023-04-19T10:28:57.540Z,12.20
2023-04-19T10:31:27.704Z,12.60
2023-04-19T10:33:58.613Z,12.40
2023-04-19T10:36:29.349Z,12.70
2023-04-19T10:38:57.526Z,13.20
2023-04-19T10:41:25.798Z,12.80
2023-04-19T10:44:12.500Z,12.80
2023-04-19T10:46:41.912Z,13.00
2023-04-19T10:49:13.808Z,12.70
2023-04-19T10:51:44.432Z,12.70
2023-04-19T10:54:31.148Z,13.00
2023-04-19T10:57:04.836Z,13.30
2023-04-19T10:59:34.219Z,13.40
2023-04-19T11:02:03.670Z,13.10
2023-04-19T11:05:02.913Z,13.10
2023-04-19T11:07:42.178Z,13.30
2023-04-19T11:10:11.861Z,13.20
2023-04-19T11:12:44.220Z,13.60
2023-04-19T11:15:12.580Z,13.30
2023-04-19T11:17:42.763Z,13.40
2023-04-19T11:20:14.871Z,13.70
2023-04-19T11:22:44.349Z,13.80
2023-04-19T11:25:14.115Z,13.60
2023-04-19T11:27:43.253Z,13.90
2023-04-19T11:30:13.210Z,13.80
2023-04-19T11:32:47.454Z,14.10
2023-04-19T11:35:22.240Z,14.10
2023-04-19T11:37:51.085Z,14.40
2023-04-19T11:40:21.071Z,14.30
2023-04-19T11:42:55.642Z,14.00
2023-04-19T11:45:32.091Z,14.00
2023-04-19T11:48:02.018Z,14.00
2023-04-19T11:50:37.080Z,14.40
2023-04-19T11:53:13.672Z,15.10
2023-04-19T11:55:44.895Z,14.50
2023-04-19T11:58:25.880Z,14.70
2023-04-19T12:00:54.385Z,15.10
2023-04-19T12:03:26.480Z,14.90
2023-04-19T12:05:58.102Z,15.00
2023-04-19T12:08:33.720Z,14.90
2023-04-19T12:11:03.667Z,14.60
2023-04-19T12:13:35.382Z,14.60
2023-04-19T12:16:05.794Z,14.70
2023-04-19T12:18:49.024Z,15.00
2023-04-19T12:21:30.749Z,15.20
2023-04-19T12:23:59.528Z,15.10
2023-04-19T12:26:29.536Z,15.40
2023-04-19T12:28:59.298Z,15.20
2023-04-19T12:34:00.785Z,15.20
2023-04-19T12:36:30.785Z,15.30
2023-04-19T12:38:59.100Z,15.20
2023-04-19T12:41:27.408Z,15.40
2023-04-19T12:43:55.882Z,15.50
2023-04-19T12:46:24.085Z,15.20
2023-04-19T12:48:52.525Z,14.80
2023-04-19T12:51:20.942Z,15.10
2023-04-19T12:53:51.955Z,15.00
2023-04-19T12:56:21.683Z,14.80
2023-04-19T12:58:50.117Z,14.60
2023-04-19T13:01:18.685Z,14.50
2023-04-19T13:03:49.114Z,14.70
2023-04-19T13:06:18.467Z,14.80
2023-04-19T13:08:48.006Z,15.20
2023-04-19T13:11:23.189Z,14.90
2023-04-19T13:13:53.574Z,15.20
2023-04-19T13:16:22.910Z,15.40
2023-04-19T13:18:52.607Z,15.30
2023-04-19T13:21:21.153Z,15.60
2023-04-19T13:23:49.407Z,15.60
2023-04-19T13:26:19.301Z,15.60
2023-04-19T13:28:47.886Z,15.60
2023-04-19T13:31:16.527Z,15.60
2023-04-19T13:33:44.950Z,15.50
2023-04-19T13:36:13.704Z,15.40
2023-04-19T13:38:42.028Z,15.50
2023-04-19T13:41:10.936Z,15.80
2023-04-19T13:43:40.836Z,15.70
2023-04-19T13:46:09.121Z,15.40
2023-04-19T13:48:37.287Z,15.60
2023-04-19T13:51:06.014Z,15.80
2023-04-19T13:53:34.834Z,15.80
2023-04-19T13:56:03.172Z,16.00
2023-04-19T13:58:31.880Z,15.50
2023-04-19T14:01:01.989Z,15.80
2023-04-19T14:03:30.653Z,15.70
2023-04-19T14:05:59.556Z,16.00
2023-04-19T14:08:27.985Z,16.10
2023-04-19T14:10:58.555Z,15.80
2023-04-19T14:13:27.491Z,15.40
2023-04-19T14:15:55.941Z,15.90
2023-04-19T14:18:25.818Z,15.80
2023-04-19T14:20:54.584Z,15.90
2023-04-19T14:23:24.488Z,15.70
2023-04-19T14:25:52.804Z,15.60
2023-04-19T14:28:21.504Z,15.50
2023-04-19T14:30:49.852Z,15.60
2023-04-19T14:33:18.251Z,15.60
2023-04-19T14:35:48.428Z,15.90
2023-04-19T14:38:16.744Z,15.80
2023-04-19T14:40:45.092Z,15.80
2023-04-19T14:43:16.886Z,15.90
2023-04-19T14:45:45.100Z,16.00
2023-04-19T14:48:15.844Z,16.40
2023-04-19T14:50:43.939Z,15.90
2023-04-19T14:53:13.871Z,15.70
2023-04-19T14:55:42.786Z,15.70
2023-04-19T14:58:11.549Z,15.70
2023-04-19T15:00:39.771Z,16.00
2023-04-19T15:03:08.281Z,16.40
2023-04-19T15:05:37.838Z,15.90
2023-04-19T15:08:10.576Z,15.60
2023-04-19T15:10:44.911Z,15.60
2023-04-19T15:13:13.487Z,15.50
2023-04-19T15:15:44.079Z,15.70
2023-04-19T15:18:18.345Z,15.80
2023-04-19T15:20:47.173Z,15.70
2023-04-19T15:23:17.673Z,15.90
2023-04-19T15:25:49.844Z,15.70
2023-04-19T15:28:18.331Z,15.70
2023-04-19T15:30:46.649Z,15.80
2023-04-19T15:33:14.958Z,15.80
2023-04-19T15:35:43.604Z,15.90
2023-04-19T15:38:13.772Z,15.80
2023-04-19T15:40:42.492Z,15.80
2023-04-19T15:43:12.591Z,15.70
2023-04-19T15:45:41.925Z,15.70
2023-04-19T15:48:10.180Z,15.70
2023-04-19T15:50:39.371Z,15.50
2023-04-19T15:53:24.748Z,15.40
2023-04-19T15:55:55.344Z,15.60
2023-04-19T15:58:25.913Z,15.70
2023-04-19T16:00:54.492Z,16.10
2023-04-19T16:03:22.777Z,15.80
2023-04-19T16:05:51.837Z,15.70
2023-04-19T16:08:20.741Z,15.70
2023-04-19T16:10:49.957Z,15.90
2023-04-19T16:13:18.260Z,15.90
2023-04-19T16:15:48.331Z,15.80
2023-04-19T16:18:16.764Z,15.20
2023-04-19T16:20:45.354Z,15.10
2023-04-19T16:23:14.904Z,15.20
2023-04-19T16:25:43.839Z,15.20
2023-04-19T16:28:12.333Z,15.30
2023-04-19T16:30:40.753Z,15.20
2023-04-19T16:33:11.483Z,15.20
2023-04-19T16:35:39.725Z,15.20
2023-04-19T16:38:08.130Z,15.30
2023-04-19T16:40:36.501Z,15.50
2023-04-19T16:43:06.510Z,15.20
2023-04-19T16:45:34.831Z,15.20
2023-04-19T16:48:03.275Z,15.30
2023-04-19T16:50:33.586Z,15.20
2023-04-19T16:53:02.139Z,15.20
2023-04-19T16:55:30.900Z,15.30
2023-04-19T16:57:59.907Z,15.40
2023-04-19T17:00:28.593Z,15.20
2023-04-19T17:02:57.040Z,15.00
2023-04-19T17:05:25.563Z,15.00
2023-04-19T17:07:56.879Z,14.80
2023-04-19T17:10:26.576Z,14.60
2023-04-19T17:12:55.599Z,14.60
2023-04-19T17:15:26.223Z,14.70
2023-04-19T17:17:54.495Z,14.60
2023-04-19T17:20:25.192Z,14.40
2023-04-19T17:22:54.902Z,14.50
2023-04-19T17:25:23.695Z,14.40
2023-04-19T17:27:52.071Z,14.50
2023-04-19T17:30:21.244Z,14.40
2023-04-19T17:32:49.717Z,14.20
2023-04-19T17:35:18.076Z,13.90
2023-04-19T17:37:47.746Z,13.80
2023-04-19T17:40:22.608Z,13.70
2023-04-19T17:42:57.287Z,13.60
2023-04-19T17:45:26.682Z,13.50
2023-04-19T17:47:56.398Z,13.30
2023-04-19T17:50:26.765Z,13.30
2023-04-19T17:52:55.876Z,13.20
2023-04-19T17:55:26.838Z,13.20
2023-04-19T17:57:55.059Z,13.20
2023-04-19T18:00:24.046Z,12.90
2023-04-19T18:02:52.799Z,12.90
2023-04-19T18:05:21.789Z,12.90
2023-04-19T18:07:49.932Z,12.80
2023-04-19T18:10:18.479Z,12.70
2023-04-19T18:12:48.418Z,12.60
2023-04-19T18:15:16.888Z,12.60
2023-04-19T18:17:45.443Z,12.50
2023-04-19T18:20:14.617Z,12.50
2023-04-19T18:22:43.341Z,12.40
2023-04-19T18:25:12.336Z,12.30
2023-04-19T18:27:42.182Z,12.20
2023-04-19T18:30:13.525Z,12.10
2023-04-19T18:32:41.839Z,12.10
2023-04-19T18:35:11.672Z,12.10
2023-04-19T18:37:42.199Z,11.80
2023-04-19T18:40:11.435Z,11.90
2023-04-19T18:42:40.067Z,11.80
2023-04-19T18:45:10.045Z,11.70
2023-04-19T18:47:39.769Z,11.70
2023-04-19T18:50:09.814Z,11.70
2023-04-19T18:52:38.928Z,11.60
2023-04-19T18:55:09.319Z,11.50
2023-04-19T18:57:39.022Z,11.30
2023-04-19T19:00:11.283Z,11.40
2023-04-19T19:02:41.733Z,11.30
2023-04-19T19:05:13.852Z,11.20
2023-04-19T19:07:43.003Z,11.20
2023-04-19T19:10:18.150Z,11.10
2023-04-19T19:12:49.264Z,11.00
2023-04-19T19:15:18.146Z,10.90
2023-04-19T19:17:50.615Z,10.90
2023-04-19T19:20:20.227Z,10.90
2023-04-19T19:22:49.348Z,11.00
2023-04-19T19:25:18.037Z,10.90
2023-04-19T19:28:05.413Z,10.70
2023-04-19T19:30:35.853Z,10.70
2023-04-19T19:33:06.280Z,10.60
2023-04-19T19:35:34.741Z,10.60
2023-04-19T19:38:03.382Z,10.50
2023-04-19T19:40:32.868Z,10.40
2023-04-19T19:43:02.014Z,10.30
2023-04-19T19:45:32.635Z,10.40
2023-04-19T19:48:03.586Z,10.30
2023-04-19T19:50:54.506Z,10.30
2023-04-19T19:53:22.341Z,10.20
2023-04-19T19:55:50.855Z,10.20
2023-04-19T19:58:42.973Z,10.10
2023-04-19T20:01:07.603Z,10.10
2023-04-19T20:03:37.794Z,10.00
2023-04-19T20:07:02.894Z,10.00
2023-04-19T20:09:01.618Z,10.00
2023-04-19T20:11:30.082Z,10.00
2023-04-19T20:13:58.481Z,9.90
2023-04-19T20:16:27.541Z,9.80
2023-04-19T20:18:57.907Z,9.80
2023-04-19T20:21:28.229Z,9.70
2023-04-19T20:23:56.715Z,9.80
2023-04-19T20:26:25.155Z,9.70
2023-04-19T20:28:53.869Z,9.80
2023-04-19T20:31:23.867Z,9.50
2023-04-19T20:33:53.096Z,9.50
2023-04-19T20:36:23.122Z,9.50
2023-04-19T20:38:53.392Z,9.40
2023-04-19T20:41:22.524Z,9.40
2023-04-19T20:43:50.834Z,9.40
2023-04-19T20:46:19.141Z,9.50
2023-04-19T20:48:47.621Z,9.40
2023-04-19T20:51:17.883Z,9.40
2023-04-19T20:53:46.054Z,9.40
2023-04-19T20:56:15.694Z,9.30
2023-04-19T20:58:44.063Z,9.40
2023-04-19T21:01:17.326Z,9.40
2023-04-19T21:03:47.054Z,9.30
2023-04-19T21:06:15.568Z,9.30
2023-04-19T21:08:43.898Z,9.40
2023-04-19T21:11:12.034Z,9.20
2023-04-19T21:13:42.021Z,9.20
2023-04-19T21:16:10.566Z,9.10
2023-04-19T21:18:38.924Z,9.20
2023-04-19T21:21:07.275Z,9.20
2023-04-19T21:23:35.772Z,9.10
2023-04-19T21:26:04.777Z,9.00
2023-04-19T21:28:35.543Z,8.90
2023-04-19T21:31:05.472Z,8.80
2023-04-19T21:33:33.901Z,8.90
2023-04-19T21:36:02.308Z,8.80
2023-04-19T21:38:32.506Z,8.80
2023-04-19T21:41:00.932Z,8.80
2023-04-19T21:43:29.602Z,8.80
2023-04-19T21:45:58.062Z,8.70
2023-04-19T21:48:27.882Z,8.70
2023-04-19T22:06:54.722Z,8.70
2023-04-19T22:09:22.776Z,8.60
2023-04-19T22:11:51.256Z,8.60
2023-04-19T22:14:19.337Z,8.60
2023-04-19T22:16:47.661Z,8.60
2023-04-19T22:19:16.183Z,8.40
2023-04-19T22:21:44.449Z,8.40
2023-04-19T22:24:13.882Z,8.40
2023-04-19T22:26:41.924Z,8.30
2023-04-19T22:29:10.051Z,8.30
2023-04-19T22:31:38.130Z,8.30
2023-04-19T22:34:06.287Z,8.40
2023-04-19T22:36:34.352Z,8.30
2023-04-19T22:39:02.355Z,8.20
2023-04-19T22:41:31.848Z,8.10
2023-04-19T22:44:00.458Z,8.30
2023-04-19T22:46:28.706Z,8.30
2023-04-19T22:48:57.887Z,8.20
2023-04-19T22:51:26.085Z,8.10
2023-04-19T22:53:54.242Z,8.10
2023-04-19T22:56:22.402Z,8.10
2023-04-19T22:58:52.164Z,8.00
2023-04-19T23:01:20.302Z,8.10
2023-04-19T23:03:48.402Z,8.10
2023-04-19T23:06:17.878Z,8.00
2023-04-19T23:08:45.921Z,8.00
2023-04-19T23:11:14.022Z,8.00
2023-04-19T23:13:42.380Z,7.90
2023-04-19T23:16:12.870Z,7.90
2023-04-19T23:18:41.325Z,7.90
2023-04-19T23:21:09.373Z,7.80
2023-04-19T23:23:37.394Z,7.90
2023-04-19T23:26:05.477Z,7.90
2023-04-19T23:28:33.567Z,7.90
2023-04-19T23:31:01.669Z,7.90
2023-04-19T23:33:31.148Z,7.90
2023-04-19T23:35:59.164Z,7.90
2023-04-19T23:38:27.194Z,7.90
2023-04-19T23:40:55.407Z,7.90
2023-04-19T23:43:23.534Z,7.90
2023-04-19T23:45:51.552Z,7.90
2023-04-19T23:48:19.658Z,7.90
2023-04-19T23:50:49.162Z,7.90
2023-04-19T23:53:17.209Z,8.00
2023-04-19T23:55:45.241Z,8.00
2023-04-19T23:58:13.310Z,7.90
